Time;durP1;ratioP1;P1;durP2;ratioP2;P2;SDS_P1;SDS_P2;PMS_P1;PMS_P2;Temp;Humidity;BMP_temperature;BMP_pressure;BME280_temperature;BME280_humidity;BME280_pressure;Samples;Min_cycle;Max_cycle;Signal;HPM_P1;HPM_P2
2024/03/08 00:00:34;;;;;;;37.42;26.75;;;5.00;88.90;;;;;;5047983;28;20033;-77
2024/03/08 00:03:03;;;;;;;36.67;26.20;;;4.90;88.90;;;;;;5057608;28;20457;-79
2024/03/08 00:05:28;;;;;;;39.25;26.00;;;4.90;88.80;;;;;;5064625;28;20029;-78
2024/03/08 00:07:54;;;;;;;36.97;25.58;;;4.90;88.90;;;;;;5061482;28;20507;-80
2024/03/08 00:10:20;;;;;;;42.90;27.33;;;4.90;88.90;;;;;;5062974;28;20059;-79
2024/03/08 00:12:46;;;;;;;37.35;25.73;;;4.80;88.80;;;;;;5064728;28;20009;-77
2024/03/08 00:15:14;;;;;;;35.70;25.38;;;4.90;88.90;;;;;;5056318;28;20075;-84
2024/03/08 00:17:44;;;;;;;37.05;25.38;;;4.90;88.80;;;;;;5056209;28;21677;-80
2024/03/08 00:20:10;;;;;;;38.00;25.25;;;4.90;88.80;;;;;;5054336;28;20017;-77
2024/03/08 00:22:38;;;;;;;36.60;25.42;;;4.80;88.80;;;;;;5059341;28;20016;-83
2024/03/08 00:25:05;;;;;;;36.78;26.73;;;4.80;89.00;;;;;;5057486;28;20478;-79
2024/03/08 00:27:31;;;;;;;36.42;25.67;;;4.90;88.80;;;;;;5053957;28;20025;-77
2024/03/08 00:29:57;;;;;;;36.40;25.13;;;4.90;88.60;;;;;;5055683;28;20082;-81
2024/03/08 00:32:24;;;;;;;34.28;24.20;;;4.90;88.60;;;;;;5061277;28;20016;-79
2024/03/08 00:34:51;;;;;;;37.55;25.17;;;4.80;88.50;;;;;;5054676;28;20110;-78
2024/03/08 00:37:17;;;;;;;35.95;24.25;;;4.80;88.40;;;;;;5057517;28;20021;-81
2024/03/08 00:39:43;;;;;;;35.30;23.77;;;4.80;88.40;;;;;;5057233;28;20051;-80
2024/03/08 00:42:09;;;;;;;30.98;22.23;;;4.80;88.30;;;;;;5054890;28;20049;-76
2024/03/08 00:44:34;;;;;;;36.55;23.23;;;4.90;88.10;;;;;;5051773;28;20043;-76
2024/03/08 00:47:00;;;;;;;35.20;25.02;;;4.90;88.00;;;;;;5057902;28;20040;-76
2024/03/08 00:49:26;;;;;;;34.95;23.45;;;4.80;87.70;;;;;;5053764;28;20626;-78
2024/03/08 00:51:51;;;;;;;36.22;24.30;;;4.80;87.70;;;;;;5052774;28;20411;-76
2024/03/08 00:54:17;;;;;;;35.33;24.52;;;4.80;87.80;;;;;;5055360;28;20029;-76
2024/03/08 00:56:43;;;;;;;35.00;23.90;;;4.80;87.70;;;;;;5061843;28;20107;-78
2024/03/08 00:59:08;;;;;;;33.22;23.20;;;4.70;87.60;;;;;;5054106;28;20570;-78
2024/03/08 01:01:34;;;;;;;37.78;23.77;;;4.70;87.60;;;;;;5055149;28;20448;-76
2024/03/08 01:04:00;;;;;;;36.20;22.70;;;4.70;87.70;;;;;;5056338;28;20453;-79
2024/03/08 01:06:26;;;;;;;35.03;22.88;;;4.60;87.80;;;;;;5056625;28;20036;-78
2024/03/08 01:08:52;;;;;;;35.17;23.38;;;4.60;87.90;;;;;;5054524;28;20044;-82
2024/03/08 01:11:18;;;;;;;36.85;24.85;;;4.60;87.80;;;;;;5054872;28;20240;-77
2024/03/08 01:13:47;;;;;;;36.53;23.40;;;4.60;87.70;;;;;;5055740;28;20507;-75
2024/03/08 01:16:13;;;;;;;34.85;22.42;;;4.60;87.80;;;;;;5052767;28;20500;-78
2024/03/08 01:18:38;;;;;;;37.53;23.90;;;4.60;87.80;;;;;;5059048;28;20048;-76
2024/03/08 01:21:04;;;;;;;29.92;21.63;;;4.50;87.80;;;;;;5051567;28;20493;-77
2024/03/08 01:23:30;;;;;;;33.15;22.80;;;4.50;87.80;;;;;;5059749;28;20031;-80
2024/03/08 01:25:58;;;;;;;33.42;24.38;;;4.50;87.90;;;;;;5059534;28;20116;-75
2024/03/08 01:28:25;;;;;;;36.90;23.55;;;4.50;87.80;;;;;;5061850;28;20024;-76
2024/03/08 01:30:55;;;;;;;36.92;24.75;;;4.50;87.90;;;;;;5054158;28;20032;-77
2024/03/08 01:33:26;;;;;;;37.13;24.02;;;4.40;88.00;;;;;;5057864;28;20029;-77
2024/03/08 01:35:52;;;;;;;35.95;23.45;;;4.30;87.90;;;;;;5050709;28;20033;-79
2024/03/08 01:38:19;;;;;;;37.30;24.30;;;4.30;88.10;;;;;;5060806;28;20027;-80
2024/03/08 01:40:44;;;;;;;35.63;23.30;;;4.30;88.20;;;;;;5051715;28;20082;-80
2024/03/08 01:43:26;;;;;;;38.88;24.42;;;4.30;88.20;;;;;;5054155;28;20417;-76
2024/03/08 01:45:53;;;;;;;35.45;23.73;;;4.30;88.20;;;;;;5050501;28;20055;-81
2024/03/08 01:48:21;;;;;;;37.45;24.23;;;4.20;88.30;;;;;;5056589;28;20025;-83
2024/03/08 01:50:47;;;;;;;37.88;23.58;;;4.30;88.40;;;;;;5052122;28;20037;-79
2024/03/08 01:53:15;;;;;;;40.95;25.77;;;4.20;88.40;;;;;;5058140;28;20335;-77
2024/03/08 01:55:41;;;;;;;39.22;25.40;;;4.20;88.40;;;;;;5056021;28;20541;-82
2024/03/08 01:58:10;;;;;;;36.67;25.27;;;4.20;88.50;;;;;;5057963;28;20222;-82
2024/03/08 02:00:38;;;;;;;39.17;26.00;;;4.20;88.50;;;;;;5050622;28;20051;-82
2024/03/08 02:03:04;;;;;;;39.85;25.88;;;4.20;88.70;;;;;;5052144;28;20059;-78
2024/03/08 02:05:30;;;;;;;40.20;25.85;;;4.20;88.70;;;;;;5052732;28;20040;-80
2024/03/08 02:07:56;;;;;;;40.58;26.05;;;4.10;88.70;;;;;;5054243;28;20049;-76
2024/03/08 02:10:22;;;;;;;41.13;26.63;;;4.10;88.80;;;;;;5057257;28;20040;-82
2024/03/08 02:12:48;;;;;;;41.05;26.65;;;4.10;89.00;;;;;;5062915;28;20025;-77
2024/03/08 02:15:14;;;;;;;45.83;27.20;;;4.20;89.00;;;;;;5048928;28;20047;-76
2024/03/08 02:17:41;;;;;;;43.67;28.08;;;4.10;89.00;;;;;;5055290;28;20059;-76
2024/03/08 02:20:09;;;;;;;41.55;27.42;;;4.10;88.90;;;;;;5059242;28;20050;-76
2024/03/08 02:22:35;;;;;;;40.30;26.58;;;4.10;89.00;;;;;;5058147;28;20012;-75
2024/03/08 02:25:03;;;;;;;43.42;27.75;;;4.10;88.90;;;;;;5062841;28;20037;-78
2024/03/08 02:27:29;;;;;;;43.58;27.95;;;4.10;89.00;;;;;;5053071;28;20032;-75
2024/03/08 02:29:56;;;;;;;42.97;28.02;;;4.10;89.10;;;;;;5049837;28;20108;-80
2024/03/08 02:32:25;;;;;;;47.72;28.83;;;4.10;89.20;;;;;;5056021;28;20017;-79
2024/03/08 02:34:51;;;;;;;43.67;27.95;;;4.00;89.30;;;;;;5054349;28;20116;-78
2024/03/08 02:37:17;;;;;;;44.97;28.67;;;4.10;89.30;;;;;;5054248;28;20070;-78
2024/03/08 02:39:43;;;;;;;44.38;28.63;;;4.10;89.20;;;;;;5052310;28;20329;-80
2024/03/08 02:42:09;;;;;;;41.85;27.95;;;4.10;89.10;;;;;;5054271;28;20191;-78
2024/03/08 02:44:34;;;;;;;46.45;29.52;;;4.10;89.00;;;;;;5053988;28;20024;-82
2024/03/08 02:47:00;;;;;;;42.95;29.58;;;4.10;89.00;;;;;;5060107;28;20164;-78
2024/03/08 02:49:27;;;;;;;45.92;29.80;;;4.10;88.90;;;;;;5055563;28;20020;-80
2024/03/08 02:51:53;;;;;;;46.22;30.10;;;4.00;89.00;;;;;;5052836;28;20036;-79
2024/03/08 02:54:19;;;;;;;45.25;29.02;;;4.00;89.10;;;;;;5052180;28;20041;-80
2024/03/08 02:56:50;;;;;;;45.72;29.08;;;4.00;89.00;;;;;;5060832;28;20036;-80
2024/03/08 02:59:17;;;;;;;46.50;29.77;;;4.00;88.90;;;;;;5053367;28;20476;-80
2024/03/08 03:01:43;;;;;;;45.70;30.25;;;3.90;88.80;;;;;;5057960;28;20632;-79
2024/03/08 03:04:09;;;;;;;48.50;30.52;;;3.90;88.90;;;;;;5052263;28;20025;-77
2024/03/08 03:06:35;;;;;;;45.05;29.50;;;3.90;89.00;;;;;;5050604;28;20041;-80
2024/03/08 03:09:01;;;;;;;49.70;30.90;;;3.90;89.00;;;;;;5052939;28;20050;-79
2024/03/08 03:11:27;;;;;;;43.97;29.27;;;3.90;88.80;;;;;;5050347;28;20032;-83
2024/03/08 03:13:53;;;;;;;46.40;30.45;;;3.90;88.80;;;;;;5050378;28;20024;-79
2024/03/08 03:16:21;;;;;;;47.28;30.48;;;3.80;88.90;;;;;;5052991;28;20534;-80
2024/03/08 03:18:47;;;;;;;48.95;31.45;;;3.80;88.90;;;;;;5053841;28;20108;-81
2024/03/08 03:21:13;;;;;;;46.83;30.33;;;3.90;88.80;;;;;;5052703;28;20419;-79
2024/03/08 03:23:42;;;;;;;50.90;29.75;;;3.90;88.70;;;;;;5057035;28;20107;-78
2024/03/08 03:26:10;;;;;;;46.97;30.58;;;3.80;88.60;;;;;;5049000;28;20032;-80
2024/03/08 03:28:39;;;;;;;43.47;30.42;;;3.80;88.50;;;;;;5052336;28;20040;-83
2024/03/08 03:31:09;;;;;;;44.97;30.60;;;3.80;88.40;;;;;;5049376;28;20038;-79
2024/03/08 03:33:36;;;;;;;47.85;31.63;;;3.80;88.30;;;;;;5059264;28;20021;-78
2024/03/08 03:36:04;;;;;;;45.42;30.75;;;3.80;88.40;;;;;;5050438;28;20271;-80
2024/03/08 03:38:30;;;;;;;46.55;30.80;;;3.70;88.30;;;;;;5060096;28;20301;-79
2024/03/08 03:40:57;;;;;;;47.58;32.28;;;3.70;88.30;;;;;;5051765;28;20388;-83
2024/03/08 03:43:23;;;;;;;47.50;30.70;;;3.70;88.30;;;;;;5058447;28;20361;-81
2024/03/08 03:45:49;;;;;;;47.55;32.28;;;3.70;88.30;;;;;;5052444;28;20071;-77
2024/03/08 03:48:15;;;;;;;48.90;31.90;;;3.70;88.30;;;;;;5056112;28;20485;-80
2024/03/08 03:50:40;;;;;;;45.10;31.38;;;3.70;88.20;;;;;;5051690;28;20460;-78
2024/03/08 03:53:08;;;;;;;46.33;32.60;;;3.60;88.10;;;;;;5060369;28;20101;-79
2024/03/08 03:55:34;;;;;;;45.85;32.25;;;3.70;88.00;;;;;;5057919;28;20044;-83
2024/03/08 03:58:01;;;;;;;47.10;31.40;;;3.60;88.00;;;;;;5057681;28;20119;-79
2024/03/08 04:00:27;;;;;;;48.28;31.98;;;3.60;88.00;;;;;;5054653;28;20086;-77
2024/03/08 04:02:53;;;;;;;45.72;32.05;;;3.60;88.10;;;;;;5055372;28;20013;-81
2024/03/08 04:05:18;;;;;;;48.72;33.42;;;3.60;88.00;;;;;;5042711;28;20623;-77
2024/03/08 04:07:44;;;;;;;46.70;31.65;;;3.60;88.00;;;;;;5057306;28;20465;-82
2024/03/08 04:10:11;;;;;;;45.25;31.33;;;3.60;88.10;;;;;;5058154;28;20029;-80
2024/03/08 04:12:37;;;;;;;45.72;32.10;;;3.50;88.00;;;;;;5058551;28;20373;-78
2024/03/08 04:15:07;;;;;;;44.65;32.42;;;3.50;88.10;;;;;;5056359;28;20142;-80
2024/03/08 04:17:36;;;;;;;50.22;34.72;;;3.50;88.20;;;;;;5059136;28;20103;-80
2024/03/08 04:20:07;;;;;;;50.00;32.13;;;3.50;88.20;;;;;;5054193;28;21162;-79
2024/03/08 04:22:35;;;;;;;46.58;32.13;;;3.40;88.20;;;;;;5054254;28;20067;-77
2024/03/08 04:25:02;;;;;;;47.42;34.05;;;3.40;88.20;;;;;;5058971;28;20123;-80
2024/03/08 04:27:27;;;;;;;48.30;33.97;;;3.40;88.20;;;;;;5060711;28;20404;-82
2024/03/08 04:29:53;;;;;;;48.92;33.10;;;3.40;88.10;;;;;;5059919;28;20032;-77
2024/03/08 04:32:18;;;;;;;48.97;32.88;;;3.40;88.00;;;;;;5057032;28;20500;-78
2024/03/08 04:34:44;;;;;;;52.03;34.80;;;3.40;88.00;;;;;;5053282;28;20537;-81
2024/03/08 04:37:13;;;;;;;49.35;34.60;;;3.40;87.80;;;;;;5055349;28;20464;-81
2024/03/08 04:39:39;;;;;;;48.65;32.45;;;3.40;87.70;;;;;;5059272;28;20036;-81
2024/03/08 04:42:09;;;;;;;48.13;34.45;;;3.40;87.80;;;;;;5059315;28;20056;-78
2024/03/08 04:44:36;;;;;;;48.10;33.65;;;3.40;87.80;;;;;;5056917;28;20623;-77
2024/03/08 04:47:01;;;;;;;47.85;33.97;;;3.30;87.80;;;;;;5060352;28;20493;-82
2024/03/08 04:49:28;;;;;;;49.83;34.20;;;3.30;87.60;;;;;;5057641;28;20013;-78
2024/03/08 04:51:53;;;;;;;47.70;34.00;;;3.20;87.60;;;;;;5063378;28;20037;-82
2024/03/08 04:54:19;;;;;;;49.35;35.25;;;3.20;87.70;;;;;;5057473;28;20028;-77
2024/03/08 04:56:45;;;;;;;46.92;32.97;;;3.20;87.90;;;;;;5057967;28;20033;-79
2024/03/08 04:59:10;;;;;;;48.13;34.45;;;3.30;87.70;;;;;;5053568;28;20036;-83
2024/03/08 05:01:37;;;;;;;49.70;35.50;;;3.20;87.50;;;;;;5050213;28;20537;-78
2024/03/08 05:04:04;;;;;;;47.47;35.42;;;3.20;87.60;;;;;;5058558;28;20761;-75
2024/03/08 05:06:30;;;;;;;48.67;33.45;;;3.20;87.60;;;;;;5062612;28;20110;-78
2024/03/08 05:08:56;;;;;;;53.08;34.72;;;3.10;87.70;;;;;;5054470;28;20146;-76
2024/03/08 05:11:21;;;;;;;47.70;33.58;;;3.10;87.60;;;;;;5054439;28;20033;-83
2024/03/08 05:13:47;;;;;;;52.63;35.25;;;3.10;87.60;;;;;;5056539;28;20366;-79
2024/03/08 05:16:15;;;;;;;48.60;34.25;;;3.10;87.60;;;;;;5051481;28;20130;-77
2024/03/08 05:18:42;;;;;;;49.10;34.28;;;3.10;87.50;;;;;;5057804;28;20039;-79
2024/03/08 05:21:09;;;;;;;49.65;35.00;;;3.10;87.60;;;;;;5056871;28;20077;-75
2024/03/08 05:23:35;;;;;;;48.55;35.15;;;3.10;87.60;;;;;;5052594;28;20029;-78
2024/03/08 05:26:01;;;;;;;46.50;33.67;;;3.00;87.60;;;;;;5054914;28;20040;-84
2024/03/08 05:28:26;;;;;;;49.55;35.47;;;3.00;87.70;;;;;;5060006;28;20051;-78
2024/03/08 05:30:52;;;;;;;47.15;34.63;;;3.00;87.70;;;;;;5060802;28;20036;-80
2024/03/08 05:33:19;;;;;;;47.47;34.60;;;3.00;87.70;;;;;;5059904;28;20020;-77
2024/03/08 05:35:45;;;;;;;51.22;35.47;;;3.00;87.60;;;;;;5052420;28;20102;-82
2024/03/08 05:38:12;;;;;;;48.97;33.42;;;3.00;87.60;;;;;;5054635;28;20052;-83
2024/03/08 05:40:38;;;;;;;51.28;37.08;;;3.10;87.50;;;;;;5058153;28;20036;-76
2024/03/08 05:43:05;;;;;;;47.60;35.38;;;2.90;87.50;;;;;;5057242;28;20044;-78
2024/03/08 05:45:31;;;;;;;50.80;35.10;;;3.00;87.50;;;;;;5049543;28;20047;-79
2024/03/08 05:47:56;;;;;;;49.30;36.22;;;3.00;87.50;;;;;;5055199;28;20036;-75
2024/03/08 05:50:22;;;;;;;51.42;34.78;;;2.90;87.50;;;;;;5053161;28;20032;-77
2024/03/08 05:52:48;;;;;;;50.83;35.97;;;2.90;87.50;;;;;;5050985;28;20311;-74
2024/03/08 05:55:14;;;;;;;50.28;36.75;;;2.90;87.60;;;;;;5051190;28;20073;-77
2024/03/08 05:57:42;;;;;;;51.63;37.47;;;2.90;87.60;;;;;;5061521;28;21193;-79
2024/03/08 06:00:10;;;;;;;53.13;35.40;;;2.90;87.60;;;;;;5051665;28;20039;-76
2024/03/08 06:02:40;;;;;;;48.53;35.53;;;2.90;87.60;;;;;;5055611;28;20017;-79
2024/03/08 06:05:10;;;;;;;50.65;35.08;;;2.90;87.70;;;;;;5053022;28;20055;-75
2024/03/08 06:07:39;;;;;;;46.60;33.60;;;2.80;87.70;;;;;;5057915;28;20324;-84
2024/03/08 06:10:09;;;;;;;46.85;33.90;;;2.70;87.80;;;;;;5054520;28;20127;-78
2024/03/08 06:12:39;;;;;;;47.67;34.25;;;2.70;87.90;;;;;;5057965;28;20013;-75
2024/03/08 06:15:06;;;;;;;47.10;34.88;;;2.80;88.00;;;;;;5055780;28;20123;-78
2024/03/08 06:17:32;;;;;;;47.95;34.80;;;2.70;88.00;;;;;;5055510;28;20107;-80
2024/03/08 06:19:57;;;;;;;49.08;34.88;;;2.70;87.90;;;;;;5059680;28;20316;-75
2024/03/08 06:22:23;;;;;;;49.97;35.03;;;2.70;87.90;;;;;;5050616;28;20024;-75
2024/03/08 06:24:50;;;;;;;48.97;35.00;;;2.70;88.00;;;;;;5059390;28;20027;-79
2024/03/08 06:27:17;;;;;;;49.75;35.03;;;2.70;88.00;;;;;;5054144;28;20048;-76
2024/03/08 06:29:43;;;;;;;55.30;36.97;;;2.70;87.90;;;;;;5052953;28;20124;-79
2024/03/08 06:32:08;;;;;;;53.90;36.95;;;2.80;87.90;;;;;;5055348;28;20541;-82
2024/03/08 06:34:37;;;;;;;52.15;35.47;;;2.80;87.70;;;;;;5057309;28;20111;-74
2024/03/08 06:37:02;;;;;;;48.05;35.22;;;2.80;87.70;;;;;;5055458;28;20111;-80
2024/03/08 06:39:32;;;;;;;49.10;36.05;;;2.80;87.70;;;;;;5049997;28;20155;-77
2024/03/08 06:41:58;;;;;;;47.28;32.85;;;2.80;87.60;;;;;;5054523;28;20067;-78
2024/03/08 06:44:23;;;;;;;47.58;35.13;;;2.90;87.50;;;;;;5050948;28;20125;-76
2024/03/08 06:46:49;;;;;;;51.65;36.20;;;2.90;87.50;;;;;;5051426;28;20271;-78
2024/03/08 06:49:16;;;;;;;47.15;35.75;;;3.00;87.30;;;;;;5055337;28;20500;-77
2024/03/08 06:51:42;;;;;;;49.20;35.42;;;2.90;87.30;;;;;;5051858;28;20536;-77
2024/03/08 06:54:08;;;;;;;49.65;35.67;;;3.00;87.40;;;;;;5057150;28;20396;-79
2024/03/08 06:56:37;;;;;;;48.13;34.58;;;3.00;87.30;;;;;;5052964;28;20754;-78
2024/03/08 06:59:03;;;;;;;50.08;34.92;;;3.10;87.10;;;;;;5050838;28;20028;-80
2024/03/08 07:01:34;;;;;;;46.42;33.45;;;3.10;87.10;;;;;;5051434;28;20029;-80
2024/03/08 07:04:02;;;;;;;46.33;33.17;;;3.20;86.80;;;;;;5059546;28;20120;-79
2024/03/08 07:06:28;;;;;;;47.67;33.58;;;3.20;86.80;;;;;;5055230;28;20245;-77
2024/03/08 07:08:54;;;;;;;48.83;33.92;;;3.30;86.60;;;;;;5053166;28;20048;-79
2024/03/08 07:11:20;;;;;;;48.33;33.83;;;3.30;86.60;;;;;;5053349;28;20398;-77
2024/03/08 07:13:46;;;;;;;47.42;33.40;;;3.40;86.40;;;;;;5052421;28;20059;-79
2024/03/08 07:16:11;;;;;;;44.65;32.35;;;3.30;86.30;;;;;;5053460;28;20032;-79
2024/03/08 07:18:43;;;;;;;46.03;33.25;;;3.40;86.40;;;;;;5050804;28;20021;-77
2024/03/08 07:21:11;;;;;;;44.33;32.97;;;3.50;86.40;;;;;;5049923;28;20043;-78
2024/03/08 07:23:46;;;;;;;44.30;33.03;;;3.50;86.10;;;;;;5045299;28;20013;-78
2024/03/08 07:26:16;;;;;;;48.42;32.90;;;3.50;86.00;;;;;;5047870;28;20040;-79
2024/03/08 07:28:42;;;;;;;45.97;33.65;;;3.60;86.10;;;;;;5054740;28;20016;-79
2024/03/08 07:33:53;;;;;;;45.38;32.10;;;3.70;85.70;;;;;;5056773;28;20431;-77
2024/03/08 07:36:19;;;;;;;45.88;33.83;;;3.80;85.60;;;;;;5052712;28;20052;-79
2024/03/08 07:38:46;;;;;;;44.05;32.40;;;3.80;85.50;;;;;;5056353;28;20047;-80
2024/03/08 07:41:13;;;;;;;43.78;32.40;;;3.90;85.50;;;;;;5044318;28;20138;-78
2024/03/08 07:43:38;;;;;;;46.50;33.63;;;3.90;85.50;;;;;;5045479;28;20041;-77
2024/03/08 07:46:04;;;;;;;46.17;33.15;;;3.90;85.30;;;;;;5047435;28;20443;-79
2024/03/08 07:48:30;;;;;;;44.58;33.20;;;4.10;85.20;;;;;;5056382;28;20024;-76
2024/03/08 07:50:56;;;;;;;46.80;33.55;;;4.10;85.20;;;;;;5046490;28;20640;-75
2024/03/08 07:53:24;;;;;;;45.80;31.60;;;4.10;85.00;;;;;;5050524;28;20021;-77
2024/03/08 07:55:50;;;;;;;47.15;33.80;;;4.20;84.90;;;;;;5051655;28;20029;-78
2024/03/08 07:58:17;;;;;;;42.90;31.13;;;4.30;84.60;;;;;;5049769;28;20348;-79
2024/03/08 08:00:42;;;;;;;42.58;31.10;;;4.30;84.50;;;;;;5050482;28;20487;-78
2024/03/08 08:03:08;;;;;;;43.92;32.20;;;4.50;84.40;;;;;;5056715;28;20429;-78
2024/03/08 08:05:35;;;;;;;45.22;32.25;;;4.60;84.20;;;;;;5053808;28;20115;-80
2024/03/08 08:08:06;;;;;;;44.90;31.55;;;4.60;83.70;;;;;;5054427;28;20025;-77
2024/03/08 08:10:32;;;;;;;42.30;30.60;;;4.70;83.50;;;;;;5051866;28;20033;-77
2024/03/08 08:12:59;;;;;;;42.75;31.08;;;4.90;83.20;;;;;;5051758;28;20491;-79
2024/03/08 08:15:24;;;;;;;41.80;30.77;;;4.90;82.70;;;;;;5055472;28;20036;-77
2024/03/08 08:17:53;;;;;;;41.25;31.67;;;5.00;82.50;;;;;;5051655;28;20025;-78
2024/03/08 08:20:18;;;;;;;42.47;31.35;;;5.10;82.20;;;;;;5051157;28;20570;-78
2024/03/08 08:22:44;;;;;;;44.20;31.70;;;5.30;81.80;;;;;;5053051;28;20028;-76
2024/03/08 08:25:13;;;;;;;42.40;30.50;;;5.50;81.10;;;;;;5054969;28;20335;-77
2024/03/08 08:27:44;;;;;;;42.50;30.70;;;5.60;80.70;;;;;;5053773;28;20116;-79
2024/03/08 08:30:11;;;;;;;43.92;31.98;;;5.70;80.70;;;;;;5054821;28;20062;-78
2024/03/08 08:32:37;;;;;;;41.40;30.05;;;5.90;80.50;;;;;;5057184;28;20115;-79
2024/03/08 08:35:04;;;;;;;38.53;29.20;;;6.00;80.30;;;;;;5046312;28;20024;-77
2024/03/08 08:37:31;;;;;;;40.10;30.05;;;6.20;79.90;;;;;;5051832;28;20476;-76
2024/03/08 08:39:57;;;;;;;39.92;30.23;;;6.30;79.20;;;;;;5059324;28;20392;-77
2024/03/08 08:42:23;;;;;;;36.47;27.60;;;6.40;78.50;;;;;;5052682;28;20052;-76
2024/03/08 08:44:50;;;;;;;39.35;28.45;;;6.50;78.40;;;;;;5055241;28;20036;-77
2024/03/08 08:47:18;;;;;;;39.65;29.00;;;6.60;77.80;;;;;;5060000;28;20368;-77
2024/03/08 08:49:46;;;;;;;39.55;29.95;;;6.80;78.10;;;;;;5052987;28;20059;-78
2024/03/08 08:52:12;;;;;;;40.80;30.35;;;7.00;76.90;;;;;;5050793;28;20102;-77
2024/03/08 08:54:38;;;;;;;38.75;28.13;;;7.10;76.80;;;;;;5051778;28;20119;-76
2024/03/08 08:57:07;;;;;;;37.95;27.88;;;7.20;76.60;;;;;;5056545;28;20027;-75
2024/03/08 08:59:35;;;;;;;38.33;28.00;;;7.30;75.90;;;;;;5060493;28;20016;-77
2024/03/08 09:02:03;;;;;;;38.38;27.60;;;7.50;75.40;;;;;;5054692;28;20592;-78
2024/03/08 09:04:30;;;;;;;38.53;28.52;;;7.40;75.40;;;;;;5050776;28;20036;-77
2024/03/08 09:06:56;;;;;;;37.90;27.88;;;7.50;75.50;;;;;;5055893;28;20044;-76
2024/03/08 09:09:22;;;;;;;37.58;28.42;;;7.50;74.40;;;;;;5054908;28;20473;-75
2024/03/08 09:11:49;;;;;;;36.85;28.50;;;7.70;75.00;;;;;;5050856;28;20032;-77
2024/03/08 09:14:15;;;;;;;36.17;27.40;;;7.80;74.20;;;;;;5046736;28;20482;-77
2024/03/08 09:16:41;;;;;;;40.95;28.00;;;7.60;73.80;;;;;;5046709;28;20037;-76
2024/03/08 09:19:07;;;;;;;36.67;28.13;;;7.80;73.70;;;;;;5058373;28;20027;-76
2024/03/08 09:21:34;;;;;;;37.78;28.02;;;7.90;74.00;;;;;;5053436;28;20657;-76
2024/03/08 09:24:01;;;;;;;34.67;26.58;;;7.90;73.40;;;;;;5052426;28;20040;-75
2024/03/08 09:26:26;;;;;;;35.42;27.58;;;7.90;73.90;;;;;;5056820;28;20456;-75
2024/03/08 09:28:54;;;;;;;34.45;25.45;;;8.10;74.20;;;;;;5057253;28;20031;-76
2024/03/08 09:31:20;;;;;;;35.20;27.40;;;8.40;73.20;;;;;;5053936;28;20736;-73
2024/03/08 09:33:46;;;;;;;35.05;27.20;;;8.40;73.40;;;;;;5056168;28;20572;-73
2024/03/08 09:36:14;;;;;;;36.28;26.05;;;8.50;73.00;;;;;;5054645;28;20108;-73
2024/03/08 09:38:40;;;;;;;37.70;27.95;;;8.80;73.50;;;;;;5054488;28;20042;-76
2024/03/08 09:41:06;;;;;;;35.25;27.70;;;8.90;72.20;;;;;;5049776;28;20447;-75
2024/03/08 09:43:32;;;;;;;33.55;25.67;;;9.00;71.80;;;;;;5055258;28;20071;-75
2024/03/08 09:45:58;;;;;;;36.25;27.80;;;9.10;71.70;;;;;;5054461;28;20041;-75
2024/03/08 09:48:25;;;;;;;36.97;27.85;;;8.90;72.10;;;;;;5054355;28;20020;-75
2024/03/08 09:50:51;;;;;;;35.50;27.00;;;9.10;71.50;;;;;;5059127;28;20094;-76
2024/03/08 09:53:17;;;;;;;34.13;27.17;;;9.20;71.40;;;;;;5055957;28;20020;-75
2024/03/08 09:55:45;;;;;;;33.45;26.33;;;9.20;70.90;;;;;;5047437;28;20037;-75
2024/03/08 10:00:47;;;;;;;34.83;26.00;;;9.30;69.90;;;;;;5051137;28;20420;-75
2024/03/08 10:03:14;;;;;;;33.05;26.05;;;9.10;70.80;;;;;;5052332;28;20020;-75
2024/03/08 10:05:41;;;;;;;33.55;25.45;;;9.40;70.50;;;;;;5051758;28;20271;-76
2024/03/08 10:08:08;;;;;;;32.92;25.50;;;9.40;70.20;;;;;;5050875;28;20051;-76
2024/03/08 10:10:40;;;;;;;31.15;25.10;;;9.60;70.10;;;;;;5067482;28;20063;-75
2024/03/08 10:13:09;;;;;;;31.08;25.00;;;9.80;69.80;;;;;;5072953;28;20027;-77
2024/03/08 10:15:39;;;;;;;33.45;25.27;;;9.80;68.90;;;;;;5072436;28;20050;-75
2024/03/08 10:18:06;;;;;;;33.28;25.20;;;9.80;69.00;;;;;;5054009;28;20025;-76
2024/03/08 10:20:33;;;;;;;34.50;26.27;;;9.90;69.30;;;;;;5059847;28;20033;-76
2024/03/08 10:23:04;;;;;;;32.63;24.17;;;10.00;69.40;;;;;;5054223;28;20222;-75
2024/03/08 10:25:31;;;;;;;32.83;24.75;;;10.00;68.40;;;;;;5054227;28;20629;-75
2024/03/08 10:27:56;;;;;;;32.53;24.25;;;9.70;68.60;;;;;;5056951;28;20086;-75
2024/03/08 10:30:23;;;;;;;34.05;24.80;;;9.80;69.30;;;;;;5055957;28;20450;-76
2024/03/08 10:32:49;;;;;;;33.53;23.60;;;10.00;68.40;;;;;;5055146;28;20453;-76
2024/03/08 10:35:16;;;;;;;31.92;23.25;;;10.10;68.20;;;;;;5056112;28;20044;-77
2024/03/08 10:37:47;;;;;;;31.27;24.55;;;10.10;67.90;;;;;;5048518;28;20021;-77
2024/03/08 10:40:19;;;;;;;33.20;23.98;;;10.40;67.80;;;;;;5053636;28;20035;-77
2024/03/08 10:42:52;;;;;;;31.10;24.77;;;10.50;67.50;;;;;;5048824;28;20502;-76
2024/03/08 10:45:37;;;;;;;33.40;24.13;;;10.60;67.10;;;;;;5049167;28;20050;-77
2024/03/08 10:48:23;;;;;;;31.35;24.50;;;10.60;66.70;;;;;;5050565;28;20033;-77
2024/03/08 10:50:50;;;;;;;30.90;23.58;;;10.70;66.10;;;;;;5057990;28;20681;-77
2024/03/08 10:53:18;;;;;;;31.58;24.17;;;10.60;67.20;;;;;;5051838;28;20017;-77
2024/03/08 10:55:44;;;;;;;32.47;24.35;;;10.70;67.90;;;;;;5042685;28;20060;-76
2024/03/08 10:58:10;;;;;;;33.22;24.55;;;10.80;66.30;;;;;;5049139;28;20077;-76
2024/03/08 11:00:37;;;;;;;31.35;23.70;;;10.90;66.10;;;;;;5053160;28;20423;-76
2024/03/08 11:03:04;;;;;;;29.60;23.77;;;11.10;66.20;;;;;;5057778;28;20020;-75
2024/03/08 11:05:40;;;;;;;30.30;23.55;;;11.20;66.10;;;;;;5053480;28;20056;-76
2024/03/08 11:08:13;;;;;;;33.10;23.85;;;11.40;67.20;;;;;;5051871;28;20024;-76
2024/03/08 11:10:53;;;;;;;28.38;22.60;;;11.50;65.70;;;;;;5051361;28;20029;-75
2024/03/08 11:13:48;;;;;;;30.63;23.45;;;11.60;64.80;;;;;;5059128;28;20027;-78
2024/03/08 11:16:37;;;;;;;29.60;23.77;;;11.70;64.60;;;;;;5043009;28;20029;-77
2024/03/08 11:19:10;;;;;;;30.02;22.30;;;11.60;63.80;;;;;;5055506;28;20180;-77
2024/03/08 11:21:39;;;;;;;30.25;22.08;;;11.60;64.50;;;;;;5048322;28;20453;-77
2024/03/08 11:24:16;;;;;;;28.50;22.67;;;11.60;64.40;;;;;;5051483;28;20013;-76
2024/03/08 11:26:42;;;;;;;28.20;21.88;;;11.50;63.90;;;;;;5053150;28;20416;-75
2024/03/08 11:29:35;;;;;;;31.67;23.00;;;11.60;64.70;;;;;;5052718;28;20419;-75
2024/03/08 11:32:11;;;;;;;27.67;21.55;;;11.80;63.90;;;;;;5052767;28;20131;-76
2024/03/08 11:34:39;;;;;;;28.20;21.30;;;11.80;63.80;;;;;;5051790;28;20396;-76
2024/03/08 11:37:17;;;;;;;29.25;22.10;;;11.80;64.10;;;;;;5049628;28;20068;-77
2024/03/08 11:39:51;;;;;;;28.92;23.00;;;11.90;64.40;;;;;;5054059;28;20053;-76
2024/03/08 11:42:18;;;;;;;28.33;23.03;;;12.10;63.40;;;;;;5053972;28;20051;-76
2024/03/08 11:44:44;;;;;;;29.95;22.40;;;12.00;62.80;;;;;;5049492;28;20529;-76
2024/03/08 11:47:11;;;;;;;29.77;23.58;;;12.10;63.60;;;;;;5047380;28;20148;-77
2024/03/08 11:49:38;;;;;;;29.85;22.20;;;12.00;64.20;;;;;;5050936;28;20097;-77
2024/03/08 11:52:04;;;;;;;29.33;22.08;;;11.60;64.10;;;;;;5054168;28;20078;-76
2024/03/08 11:54:29;;;;;;;27.40;21.63;;;11.60;64.00;;;;;;5049572;28;20330;-75
2024/03/08 11:57:02;;;;;;;28.13;22.75;;;11.60;65.20;;;;;;5049233;28;20033;-77
2024/03/08 11:59:30;;;;;;;29.35;22.60;;;11.60;64.40;;;;;;5050591;28;20013;-75
2024/03/08 12:02:10;;;;;;;29.85;22.85;;;11.80;64.50;;;;;;5057286;28;20096;-77
2024/03/08 12:04:36;;;;;;;28.70;22.15;;;12.00;64.60;;;;;;5051442;28;20021;-78
2024/03/08 12:07:02;;;;;;;28.55;22.15;;;12.10;64.80;;;;;;5053040;28;20079;-78
2024/03/08 12:09:31;;;;;;;29.10;22.58;;;12.10;64.30;;;;;;5052766;28;20422;-76
2024/03/08 12:11:59;;;;;;;29.23;22.63;;;12.00;63.80;;;;;;5057179;28;20033;-77
2024/03/08 12:14:24;;;;;;;30.00;21.85;;;12.00;63.80;;;;;;5051472;28;20070;-77
2024/03/08 12:16:52;;;;;;;26.52;21.05;;;12.00;64.20;;;;;;5055724;28;20024;-76
2024/03/08 12:19:18;;;;;;;24.75;20.83;;;12.10;64.60;;;;;;5054697;28;20366;-78
2024/03/08 12:21:48;;;;;;;30.92;23.40;;;12.10;64.20;;;;;;5052648;28;20049;-76
2024/03/08 12:24:19;;;;;;;27.40;21.67;;;12.40;63.60;;;;;;5049699;28;20392;-76
2024/03/08 12:26:45;;;;;;;28.33;22.48;;;12.30;63.20;;;;;;5050525;28;20051;-76
2024/03/08 12:29:20;;;;;;;26.00;20.63;;;12.30;63.50;;;;;;5049937;28;20036;-77
2024/03/08 12:31:46;;;;;;;;;;;12.30;63.70;;;;;;5053028;28;20033;-77
2024/03/08 12:34:14;;;;;;;27.23;20.77;;;12.50;63.30;;;;;;5055221;28;19970;-76
2024/03/08 12:36:47;;;;;;;28.98;21.30;;;12.60;62.70;;;;;;5053256;28;20425;-76
2024/03/08 12:39:15;;;;;;;28.15;21.77;;;12.60;64.10;;;;;;5047042;28;20112;-76
2024/03/08 12:41:41;;;;;;;30.10;21.60;;;12.20;62.80;;;;;;5052869;28;20154;-78